Time;durP1;ratioP1;P1;durP2;ratioP2;P2;SDS_P1;SDS_P2;PMS_P1;PMS_P2;Temp;Humidity;BMP_temperature;BMP_pressure;BME280_temperature;BME280_humidity;BME280_pressure;Samples;Min_cycle;Max_cycle;Signal;HPM_P1;HPM_P2
2022/08/06 00:00:55;;;;;;;1.65;0.85;;;18.30;91.20;;;18.58;79.77;101851.66;5145005;28;20135;-69
2022/08/06 00:03:27;;;;;;;1.83;1.00;;;18.20;91.10;;;18.55;79.58;101853.34;5145060;28;20046;-68
2022/08/06 00:06:01;;;;;;;2.45;1.30;;;18.20;91.10;;;18.52;79.63;101855.91;5144885;28;20385;-70
2022/08/06 00:08:33;;;;;;;1.20;0.90;;;18.20;91.20;;;18.48;79.53;101860.25;5143771;28;20061;-69
2022/08/06 00:11:06;;;;;;;1.05;0.93;;;18.10;91.20;;;18.46;79.55;101851.44;5145190;28;20046;-70
2022/08/06 00:13:38;;;;;;;2.47;1.00;;;18.10;91.30;;;18.44;79.72;101855.75;5144950;28;20117;-69
2022/08/06 00:16:10;;;;;;;1.65;0.98;;;18.10;91.40;;;18.36;79.73;101847.69;5127756;28;20456;-69
2022/08/06 00:18:43;;;;;;;3.10;1.30;;;18.00;91.40;;;18.33;79.82;101852.06;5144751;28;20125;-69
2022/08/06 00:21:17;;;;;;;1.23;0.80;;;18.00;91.50;;;18.31;80.09;101853.75;5144920;28;20074;-69
2022/08/06 00:23:50;;;;;;;1.42;0.85;;;17.90;91.50;;;18.26;80.17;101851.03;5144881;28;20127;-69
2022/08/06 00:26:24;;;;;;;2.88;1.00;;;17.90;91.60;;;18.22;80.41;101856.22;5144851;28;20049;-71
2022/08/06 00:28:56;;;;;;;1.58;1.20;;;17.90;91.70;;;18.17;80.68;101851.72;5144746;28;20464;-71
2022/08/06 00:31:28;;;;;;;1.25;0.95;;;17.90;91.80;;;18.14;80.72;101850.78;5144776;28;20046;-69
2022/08/06 00:34:03;;;;;;;2.13;0.90;;;17.80;91.90;;;18.10;80.99;101863.00;5143573;28;20055;-69
2022/08/06 00:36:37;;;;;;;1.05;0.80;;;17.80;92.00;;;18.07;81.26;101862.97;5144743;28;20134;-70
2022/08/06 00:39:09;;;;;;;2.70;0.95;;;17.80;92.10;;;18.05;81.58;101867.28;5144585;28;20046;-70
2022/08/06 00:41:41;;;;;;;1.35;1.20;;;17.70;92.30;;;18.01;81.91;101860.19;5144795;28;20411;-70
2022/08/06 00:44:14;;;;;;;2.05;0.90;;;17.70;92.70;;;17.98;82.18;101865.38;5144826;28;20563;-70
2022/08/06 00:46:47;;;;;;;1.10;1.00;;;17.70;92.60;;;17.98;82.57;101875.06;5144621;28;20046;-70
2022/08/06 00:49:19;;;;;;;2.65;1.00;;;17.60;92.80;;;17.95;83.28;101869.72;5144654;28;20556;-69
2022/08/06 00:51:52;;;;;;;3.05;1.13;;;17.60;93.10;;;17.89;83.97;101867.84;5144654;28;20054;-68
2022/08/06 00:54:24;;;;;;;1.42;1.00;;;17.60;93.70;;;17.85;84.49;101879.16;5144663;28;20057;-69
2022/08/06 00:56:57;;;;;;;1.90;0.82;;;17.60;93.60;;;17.80;84.80;101875.53;5144598;28;20055;-71
2022/08/06 00:59:29;;;;;;;1.83;1.10;;;17.50;93.80;;;17.74;85.79;101872.78;5144410;28;20050;-68
2022/08/06 01:02:01;;;;;;;1.27;1.13;;;17.40;94.10;;;17.69;86.26;101882.28;5144170;28;20049;-70
2022/08/06 01:04:33;;;;;;;1.88;1.10;;;17.40;94.40;;;17.61;86.83;101882.13;5144325;28;20051;-69
2022/08/06 01:07:07;;;;;;;1.75;1.20;;;17.30;94.70;;;17.55;87.37;101882.88;5144458;28;20043;-69
2022/08/06 01:09:39;;;;;;;2.13;1.05;;;17.30;95.00;;;17.51;88.35;101885.38;5147791;28;20524;-70
2022/08/06 01:12:11;;;;;;;3.05;1.00;;;17.20;95.40;;;17.44;88.59;101886.09;5148224;28;20078;-70
2022/08/06 01:14:43;;;;;;;1.25;1.00;;;17.20;95.60;;;17.37;88.51;101879.78;5148109;28;20082;-70
2022/08/06 01:17:25;;;;;;;1.70;1.08;;;17.10;95.70;;;17.32;88.98;101881.41;5148044;28;20043;-69
2022/08/06 01:20:06;;;;;;;1.30;1.20;;;17.00;95.90;;;17.25;89.75;101887.41;5148047;28;20495;-69
2022/08/06 01:23:12;;;;;;;1.88;1.08;;;17.00;96.30;;;17.17;90.57;101891.59;5148197;28;20065;-68
2022/08/06 01:26:22;;;;;;;2.10;1.17;;;16.90;96.60;;;17.12;90.43;101895.84;5147830;28;20057;-69
2022/08/06 01:29:00;;;;;;;2.20;1.10;;;16.80;96.80;;;17.01;90.03;101880.63;5148226;28;20043;-69
2022/08/06 01:31:51;;;;;;;3.33;1.17;;;16.80;96.80;;;16.96;90.04;101887.56;5147589;28;20500;-69
2022/08/06 01:34:30;;;;;;;2.45;0.90;;;16.70;96.90;;;16.89;90.43;101895.22;5147880;28;20078;-69
2022/08/06 01:37:10;;;;;;;2.97;0.93;;;16.60;97.10;;;16.86;90.86;101890.78;5147736;28;20559;-69
2022/08/06 01:39:47;;;;;;;2.97;1.08;;;16.60;97.30;;;16.81;91.38;101893.28;5170751;23;20050;-83
2022/08/06 01:42:21;;;;;;;3.20;1.30;;;16.50;97.50;;;16.76;91.87;101896.69;5143170;28;20055;-83
2022/08/06 01:45:00;;;;;;;3.17;1.10;;;16.50;97.80;;;16.74;92.02;101893.97;5150550;28;20043;-83
2022/08/06 01:47:35;;;;;;;1.58;0.95;;;16.50;98.00;;;16.73;92.09;101901.84;5134842;28;20046;-82
2022/08/06 01:50:09;;;;;;;1.50;1.00;;;16.40;98.10;;;16.70;92.62;101893.88;5134562;28;20047;-83
2022/08/06 01:52:43;;;;;;;1.20;1.00;;;16.40;98.30;;;16.68;92.94;101901.66;5152104;28;20053;-83
2022/08/06 01:55:17;;;;;;;2.03;1.50;;;16.40;98.50;;;16.65;92.99;101901.59;5152119;28;20523;-84
2022/08/06 01:57:54;;;;;;;1.52;1.13;;;16.40;98.60;;;16.62;93.36;101898.88;5114721;29;20071;-84
2022/08/06 02:00:29;;;;;;;2.78;1.05;;;16.30;98.70;;;16.58;93.33;101906.66;5118620;28;20123;-84
2022/08/06 02:03:14;;;;;;;1.83;1.50;;;16.30;98.90;;;16.52;93.75;101903.00;5150808;28;20405;-83
2022/08/06 02:05:47;;;;;;;1.42;1.20;;;16.30;99.00;;;16.48;94.14;101919.53;5135200;28;20053;-83
2022/08/06 02:08:22;;;;;;;1.55;1.10;;;16.20;99.50;;;16.44;94.41;101922.06;5134774;28;20050;-83
2022/08/06 02:10:56;;;;;;;1.17;1.00;;;16.20;99.40;;;16.42;94.78;101923.75;5135322;28;20536;-84
2022/08/06 02:13:31;;;;;;;1.63;1.02;;;16.10;99.60;;;16.41;95.46;101933.38;5135285;28;20051;-83
2022/08/06 02:16:11;;;;;;;1.58;1.20;;;16.10;99.90;;;16.42;95.43;101929.91;5134754;28;20051;-84
2022/08/06 02:18:47;;;;;;;2.47;1.25;;;16.20;99.90;;;16.44;94.96;101930.84;5134911;28;20094;-84
2022/08/06 02:21:21;;;;;;;1.73;1.00;;;16.20;99.90;;;16.44;94.75;101928.22;5133936;28;20074;-84
2022/08/06 02:23:55;;;;;;;2.85;2.08;;;16.20;99.90;;;16.44;94.79;101935.22;5134088;28;20427;-84
2022/08/06 02:26:29;;;;;;;2.67;0.98;;;16.20;99.90;;;16.41;94.69;101933.38;5151761;28;20074;-84
2022/08/06 02:29:05;;;;;;;1.85;1.30;;;16.10;99.90;;;16.33;94.74;101934.91;5135243;28;20043;-85
2022/08/06 02:31:38;;;;;;;2.17;1.10;;;16.10;99.90;;;16.25;95.28;101936.44;5152172;28;20082;-84
2022/08/06 02:34:11;;;;;;;2.83;1.48;;;16.10;99.90;;;16.19;95.86;101941.50;5150056;28;20401;-83
2022/08/06 02:36:47;;;;;;;2.42;1.02;;;16.00;99.90;;;16.13;96.42;101941.31;5132970;28;20057;-83
2022/08/06 02:39:25;;;;;;;2.40;1.20;;;15.90;99.90;;;16.08;96.49;101942.91;5150346;28;20038;-84
2022/08/06 02:42:05;;;;;;;1.38;1.00;;;15.80;99.90;;;16.02;96.56;101944.50;5134477;28;20055;-84
2022/08/06 02:44:48;;;;;;;1.77;1.00;;;15.80;99.90;;;15.98;97.11;101952.28;5136055;28;20054;-84
2022/08/06 02:47:28;;;;;;;1.48;1.15;;;15.70;99.90;;;15.91;97.32;101945.94;5135871;28;20062;-84
2022/08/06 02:50:04;;;;;;;2.17;1.23;;;15.70;99.90;;;15.88;97.48;101944.94;5135793;28;20272;-84
2022/08/06 02:52:41;;;;;;;1.45;1.05;;;15.70;99.90;;;15.84;97.68;101949.19;5136132;28;20053;-84
2022/08/06 02:55:19;;;;;;;1.88;1.30;;;15.60;99.90;;;15.80;98.04;101947.31;5153514;28;20070;-84
2022/08/06 02:57:55;;;;;;;1.70;1.00;;;15.60;99.90;;;15.76;98.20;101955.06;5135592;28;20074;-84
2022/08/06 03:00:30;;;;;;;1.70;1.00;;;15.50;99.90;;;15.68;98.51;101946.94;5153598;28;20046;-85
2022/08/06 03:03:07;;;;;;;2.53;1.00;;;15.50;99.90;;;15.64;99.03;101950.28;5153252;28;20046;-84
2022/08/06 03:05:45;;;;;;;2.80;1.23;;;15.40;99.90;;;15.58;99.38;101956.19;5154038;28;20049;-85
2022/08/06 03:08:22;;;;;;;2.47;1.40;;;15.40;99.90;;;15.54;99.91;101953.44;5137437;28;20039;-85
2022/08/06 03:10:56;;;;;;;2.60;1.25;;;15.30;99.90;;;15.51;100.00;101958.56;5137984;28;20057;-85
2022/08/06 03:13:30;;;;;;;1.92;1.30;;;15.30;99.90;;;15.48;100.00;101962.91;5138598;28;20047;-85
2022/08/06 03:16:04;;;;;;;1.88;1.10;;;15.30;99.90;;;15.45;100.00;101964.53;5156316;28;20046;-85
2022/08/06 03:18:38;;;;;;;2.15;1.20;;;15.20;99.90;;;15.41;100.00;101967.91;5140906;28;20051;-85
2022/08/06 03:21:11;;;;;;;3.40;1.20;;;15.20;99.90;;;15.39;100.00;101967.84;5144042;28;20055;-85
2022/08/06 03:23:44;;;;;;;1.75;1.20;;;15.20;99.90;;;15.33;100.00;101965.03;5138191;28;20047;-85
2022/08/06 03:26:17;;;;;;;1.95;1.45;;;15.10;99.90;;;15.31;100.00;101968.41;5150407;28;20053;-84
2022/08/06 03:28:50;;;;;;;1.20;0.93;;;15.10;99.90;;;15.26;100.00;101967.38;5134290;28;20047;-84
2022/08/06 03:31:24;;;;;;;2.45;1.50;;;15.10;99.90;;;15.23;100.00;101967.28;5149492;28;20420;-85
2022/08/06 03:33:59;;;;;;;1.88;1.30;;;15.00;99.90;;;15.20;100.00;101968.06;5133901;28;20061;-84
2022/08/06 03:36:31;;;;;;;2.95;1.30;;;15.00;99.90;;;15.18;100.00;101974.97;5134010;28;20244;-87
2022/08/06 03:39:08;;;;;;;1.80;1.20;;;15.00;99.90;;;15.15;100.00;101975.78;5132748;28;20066;-84
2022/08/06 03:41:41;;;;;;;2.33;1.17;;;15.00;99.90;;;15.12;100.00;101972.16;5133156;28;20051;-84
2022/08/06 03:44:14;;;;;;;1.55;1.10;;;14.90;99.90;;;15.12;100.00;101982.66;5150077;28;20047;-85
2022/08/06 03:46:54;;;;;;;3.47;1.60;;;14.90;99.90;;;15.16;100.00;101976.69;5150191;28;20133;-85
2022/08/06 03:49:35;;;;;;;2.95;1.10;;;14.90;99.90;;;15.17;100.00;101981.09;5133807;28;20051;-84
2022/08/06 03:52:09;;;;;;;2.88;1.42;;;15.00;99.90;;;15.13;100.00;101982.72;5149391;28;20106;-83
2022/08/06 03:54:48;;;;;;;2.08;0.98;;;15.00;99.90;;;15.11;100.00;101973.88;5150083;28;20051;-84
2022/08/06 03:57:26;;;;;;;2.22;1.80;;;14.90;99.90;;;15.08;100.00;101986.03;5132715;28;20437;-84
2022/08/06 04:00:00;;;;;;;2.30;1.02;;;14.90;99.90;;;15.02;100.00;101977.94;5132386;28;20052;-84
2022/08/06 04:02:37;;;;;;;4.30;1.35;;;14.80;99.90;;;14.98;100.00;101989.16;5149743;28;20051;-85
2022/08/06 04:05:13;;;;;;;1.45;1.13;;;14.80;99.90;;;14.91;100.00;101981.06;5132905;28;20051;-84
2022/08/06 04:07:45;;;;;;;1.83;1.40;;;14.70;99.90;;;14.87;100.00;101989.69;5148611;28;20055;-85
2022/08/06 04:10:19;;;;;;;1.73;1.35;;;14.70;99.90;;;14.83;100.00;101993.03;5133705;28;20062;-84
2022/08/06 04:12:52;;;;;;;2.13;1.50;;;14.70;99.90;;;14.78;100.00;101989.31;5150687;28;20047;-84
2022/08/06 04:15:25;;;;;;;2.50;1.30;;;14.60;99.90;;;14.73;100.00;101988.25;5135332;28;20061;-84
2022/08/06 04:17:57;;;;;;;3.05;1.60;;;14.60;99.90;;;14.72;100.00;101991.72;5134035;28;20501;-84
2022/08/06 04:20:33;;;;;;;3.38;1.45;;;14.50;99.90;;;14.71;100.00;101997.81;5149802;28;20420;-84
2022/08/06 04:23:05;;;;;;;2.05;1.30;;;14.50;99.90;;;14.68;100.00;101997.72;5150865;28;20054;-84
2022/08/06 04:25:42;;;;;;;1.80;1.33;;;14.50;99.90;;;14.68;100.00;101996.81;5134882;28;20137;-84
2022/08/06 04:28:16;;;;;;;3.15;1.40;;;14.50;99.90;;;14.66;100.00;102004.63;5150641;28;20047;-85
2022/08/06 04:30:50;;;;;;;2.10;1.30;;;14.50;99.90;;;14.65;100.00;102008.97;5150985;28;20057;-84
2022/08/06 04:33:25;;;;;;;1.83;1.52;;;14.50;99.90;;;14.68;100.00;102005.59;5136687;28;20050;-84
2022/08/06 04:36:04;;;;;;;2.15;1.30;;;14.50;99.90;;;14.75;100.00;102004.09;5151762;28;20138;-86
2022/08/06 04:38:37;;;;;;;2.80;1.23;;;14.50;99.90;;;14.80;100.00;102013.00;5149387;28;20035;-85
2022/08/06 04:41:10;;;;;;;1.77;1.20;;;14.60;99.90;;;14.82;100.00;102012.25;5149236;28;20057;-85
2022/08/06 04:43:42;;;;;;;1.80;1.30;;;14.60;99.90;;;14.83;100.00;102016.66;5135942;28;20073;-84
2022/08/06 04:46:14;;;;;;;3.10;1.30;;;14.60;99.90;;;14.84;100.00;102020.16;5137496;28;20495;-84
2022/08/06 04:48:46;;;;;;;4.03;2.78;;;14.70;99.90;;;14.85;100.00;102017.59;5137839;28;20394;-85
2022/08/06 04:51:23;;;;;;;1.67;1.10;;;14.60;99.90;;;14.90;100.00;102023.00;5137751;28;20050;-84
2022/08/06 04:53:55;;;;;;;2.42;1.50;;;14.70;99.90;;;14.95;100.00;102036.31;5154024;28;20189;-84
2022/08/06 04:56:27;;;;;;;2.67;1.42;;;14.70;99.90;;;15.02;100.00;102030.44;5137254;28;20501;-84
2022/08/06 04:58:59;;;;;;;1.58;1.48;;;14.80;99.90;;;15.10;100.00;102036.88;5138452;28;20051;-84
2022/08/06 05:01:31;;;;;;;2.58;1.27;;;14.80;99.90;;;15.17;100.00;102038.88;5156007;28;20085;-84
2022/08/06 05:04:04;;;;;;;1.67;1.30;;;14.90;99.90;;;15.26;100.00;102041.84;5155374;28;20058;-85
2022/08/06 05:06:50;;;;;;;2.38;1.50;;;15.00;99.90;;;15.26;100.00;102043.53;5154635;28;20051;-85
2022/08/06 05:09:26;;;;;;;2.78;1.20;;;15.10;99.90;;;15.25;100.00;102047.91;5154266;28;20078;-85
2022/08/06 05:12:05;;;;;;;2.55;1.52;;;15.00;99.90;;;15.23;100.00;102036.47;5137954;28;20046;-85
2022/08/06 05:14:42;;;;;;;2.25;1.58;;;15.10;99.90;;;15.24;100.00;102045.22;5138698;28;20050;-85
2022/08/06 05:17:18;;;;;;;1.88;1.52;;;15.00;99.90;;;15.29;100.00;102054.19;5138235;28;20434;-84
2022/08/06 05:19:58;;;;;;;1.85;1.23;;;15.00;99.90;;;15.43;100.00;102056.44;5154993;28;20042;-86
2022/08/06 05:22:33;;;;;;;2.50;1.63;;;15.20;99.90;;;15.72;100.00;102059.22;5155743;28;20055;-84
2022/08/06 05:25:08;;;;;;;2.28;1.35;;;15.40;99.90;;;16.05;100.00;102056.81;5156133;28;20051;-85
2022/08/06 05:27:41;;;;;;;3.47;1.42;;;15.70;99.90;;;16.37;98.75;102063.09;5140404;28;20043;-85
2022/08/06 05:30:14;;;;;;;4.05;1.80;;;16.00;99.90;;;16.63;96.72;102076.19;5157732;28;20047;-86
2022/08/06 05:32:49;;;;;;;1.92;1.40;;;16.20;99.90;;;16.87;94.94;102079.56;5139197;28;20058;-85
2022/08/06 05:35:21;;;;;;;3.70;1.65;;;16.50;99.90;;;17.07;93.22;102080.13;5138380;28;20230;-83
2022/08/06 05:37:55;;;;;;;2.15;1.50;;;16.70;99.90;;;17.33;92.12;102083.50;5153866;28;20535;-84
2022/08/06 05:40:33;;;;;;;3.63;1.70;;;16.90;99.90;;;17.52;91.19;102091.06;5136434;28;20071;-84
2022/08/06 05:43:05;;;;;;;2.13;1.85;;;17.10;99.90;;;17.73;89.98;102084.59;5137926;28;20088;-84
2022/08/06 05:45:39;;;;;;;3.35;1.50;;;17.30;99.90;;;17.90;89.08;102089.44;5153341;28;20047;-83
2022/08/06 05:48:14;;;;;;;2.65;1.60;;;17.50;99.90;;;18.11;87.40;102083.81;5136466;28;20504;-84
2022/08/06 05:50:57;;;;;;;3.70;1.58;;;17.70;99.50;;;18.24;86.25;102094.66;5136309;28;20050;-84
2022/08/06 05:53:37;;;;;;;2.65;1.63;;;17.80;99.00;;;18.35;85.53;102093.19;5135425;28;20039;-83
2022/08/06 05:56:15;;;;;;;3.42;1.60;;;17.90;98.60;;;18.48;85.00;102103.16;5151909;28;20081;-84
2022/08/06 05:58:54;;;;;;;3.33;1.70;;;18.10;98.40;;;18.66;84.49;102094.78;5142113;28;20043;-81
2022/08/06 06:01:27;;;;;;;3.85;1.73;;;18.20;98.10;;;18.89;83.61;102098.81;5130102;28;20090;-79
2022/08/06 06:04:00;;;;;;;3.85;1.67;;;18.40;97.80;;;18.93;82.22;102094.50;5147446;28;20047;-78
2022/08/06 06:06:32;;;;;;;3.15;1.80;;;18.50;97.20;;;19.06;82.95;102101.84;5130040;28;20105;-78
2022/08/06 06:09:07;;;;;;;3.30;1.70;;;18.60;97.40;;;19.23;81.96;102099.50;5130375;28;20516;-78
2022/08/06 06:11:39;;;;;;;4.60;1.85;;;18.80;97.40;;;19.35;80.83;102107.69;5129857;28;20057;-79
2022/08/06 06:14:28;;;;;;;2.83;1.60;;;18.90;96.60;;;19.46;79.65;102108.78;5128473;28;20063;-78
2022/08/06 06:17:20;;;;;;;3.90;1.80;;;19.00;96.10;;;19.58;79.31;102102.88;5129764;28;20038;-80
2022/08/06 06:20:06;;;;;;;4.80;2.30;;;19.10;95.80;;;19.66;77.82;102101.25;5128275;28;20138;-78
2022/08/06 06:22:47;;;;;;;3.85;1.88;;;19.20;95.20;;;19.73;76.87;102103.16;5146009;28;20058;-78
2022/08/06 06:25:29;;;;;;;4.93;2.00;;;19.20;94.80;;;19.82;77.04;102106.81;5145680;28;20421;-78
2022/08/06 06:28:09;;;;;;;3.75;1.75;;;19.30;94.70;;;19.92;76.35;102104.38;5139673;28;20058;-78
2022/08/06 06:30:52;;;;;;;2.45;1.75;;;19.40;94.50;;;20.06;76.55;102109.88;5142827;28;20052;-79
2022/08/06 06:33:39;;;;;;;4.05;2.10;;;19.40;94.40;;;20.26;75.88;102118.16;5145863;28;20043;-79
2022/08/06 06:36:21;;;;;;;4.20;1.98;;;19.60;94.10;;;20.43;74.78;102108.72;5146072;28;20045;-79
2022/08/06 06:39:05;;;;;;;4.95;1.58;;;19.80;93.70;;;20.59;74.46;102115.16;5147073;28;20039;-80
2022/08/06 06:41:46;;;;;;;2.40;1.58;;;20.00;93.50;;;20.68;73.83;102115.31;5148732;28;20043;-79
2022/08/06 06:44:26;;;;;;;3.03;1.10;;;20.10;93.10;;;20.84;75.61;102122.59;5127507;28;20070;-81
2022/08/06 06:47:03;;;;;;;2.25;1.60;;;20.30;93.80;;;21.04;75.00;102129.91;5149837;28;20059;-81
2022/08/06 06:49:41;;;;;;;3.10;1.30;;;20.50;93.50;;;21.17;74.48;102123.88;5148644;28;20041;-80
2022/08/06 06:52:29;;;;;;;2.38;1.23;;;20.60;92.90;;;21.29;73.32;102120.53;5132305;28;20098;-81
2022/08/06 06:55:07;;;;;;;1.52;1.00;;;20.80;92.40;;;21.34;73.05;102132.09;5126462;28;20046;-81
2022/08/06 06:57:46;;;;;;;2.22;1.00;;;20.80;92.10;;;21.39;72.03;102131.28;5147958;28;20039;-80
2022/08/06 07:00:19;;;;;;;1.67;0.95;;;20.80;91.60;;;21.49;71.35;102140.22;5133032;28;20049;-80
2022/08/06 07:02:53;;;;;;;2.28;1.05;;;20.90;91.20;;;21.58;70.02;102134.09;5148995;28;20416;-80
2022/08/06 07:05:26;;;;;;;1.23;0.90;;;21.00;90.50;;;21.59;69.03;102141.22;5146143;28;20051;-79
2022/08/06 07:08:00;;;;;;;2.25;1.00;;;21.00;90.00;;;21.58;69.20;102139.41;5130458;28;20046;-79
2022/08/06 07:10:34;;;;;;;2.72;1.40;;;21.00;89.70;;;21.54;68.88;102138.50;5146974;28;20263;-78
2022/08/06 07:13:10;;;;;;;2.45;0.93;;;21.00;89.10;;;21.61;69.32;102144.78;5129694;28;20508;-78
2022/08/06 07:15:44;;;;;;;3.15;1.15;;;21.00;89.30;;;21.74;68.82;102149.31;5146842;28;20448;-78
2022/08/06 07:18:17;;;;;;;1.35;1.00;;;21.10;88.90;;;21.74;66.94;102141.38;5147447;28;20046;-82
2022/08/06 07:20:49;;;;;;;4.13;1.00;;;21.20;86.40;;;21.61;67.07;102152.72;5147718;28;20043;-79
2022/08/06 07:23:22;;;;;;;4.50;0.90;;;21.10;86.20;;;21.72;67.55;102153.75;5131138;28;20051;-80
2022/08/06 07:25:56;;;;;;;4.07;0.93;;;21.20;86.80;;;21.93;67.42;102147.75;5149157;28;20089;-79
2022/08/06 07:28:31;;;;;;;3.10;1.08;;;21.30;86.80;;;22.10;66.78;102151.47;5131631;28;20097;-79
2022/08/06 07:31:07;;;;;;;3.13;0.90;;;21.40;86.10;;;22.21;65.51;102157.75;5148262;28;20035;-80
2022/08/06 07:33:42;;;;;;;1.27;0.88;;;21.50;85.00;;;22.29;65.59;102163.13;5132481;28;20142;-80
2022/08/06 07:36:18;;;;;;;1.40;0.60;;;21.50;84.80;;;22.43;65.33;102156.19;5129080;28;20051;-81
2022/08/06 07:41:32;;;;;;;;;;;21.80;84.40;;;22.71;64.30;102162.56;5177430;28;20523;-84
2022/08/06 07:44:08;;;;;;;1.75;0.70;;;21.90;83.10;;;22.83;64.21;102163.53;5187972;28;19958;-82
2022/08/06 07:46:48;;;;;;;1.75;1.10;;;22.00;82.80;;;22.92;64.65;102155.63;5189304;28;20400;-81
2022/08/06 07:49:24;;;;;;;2.15;0.80;;;22.20;82.90;;;23.07;64.20;102150.38;5201017;28;20056;-83
2022/08/06 07:51:58;;;;;;;1.17;0.60;;;22.30;82.50;;;23.14;62.94;102141.53;5168084;28;20053;-83
2022/08/06 07:54:31;;;;;;;0.88;0.52;;;22.30;81.30;;;23.13;63.40;102154.84;5167895;28;20046;-83
2022/08/06 07:57:05;;;;;;;2.80;1.10;;;22.30;80.90;;;23.27;63.30;102139.81;5167173;28;20057;-82
2022/08/06 07:59:40;;;;;;;1.83;0.65;;;22.40;81.20;;;23.53;62.23;102138.13;5167218;28;20051;-82
2022/08/06 08:02:15;;;;;;;1.88;0.60;;;22.60;80.50;;;23.79;62.20;102139.97;5168252;28;20141;-83
2022/08/06 08:07:38;;;;;;;1.90;0.90;;;22.90;79.10;;;24.24;59.99;102146.22;5168651;28;20053;-84
2022/08/06 08:10:12;;;;;;;2.28;0.60;;;23.10;77.80;;;24.55;59.55;102145.34;5177475;28;20055;-83
2022/08/06 08:12:45;;;;;;;2.05;0.60;;;23.30;77.30;;;24.90;58.52;102155.91;5167647;28;20129;-82
2022/08/06 08:15:20;;;;;;;5.25;1.05;;;23.50;76.30;;;25.28;57.38;102151.34;5167384;28;20516;-82
2022/08/06 08:17:52;;;;;;;1.15;0.60;;;23.80;75.50;;;25.62;55.91;102152.94;5167745;28;20046;-83
2022/08/06 08:20:25;;;;;;;2.92;0.55;;;23.90;73.40;;;26.16;54.65;102153.50;5182957;28;20145;-82
2022/08/06 08:22:58;;;;;;;0.88;0.40;;;24.30;72.60;;;26.50;53.75;102153.22;5182336;28;20054;-82
2022/08/06 08:25:30;;;;;;;1.15;0.50;;;24.50;71.40;;;26.96;52.37;102144.69;5167350;28;20116;-84
2022/08/06 08:28:02;;;;;;;0.70;0.50;;;24.70;69.90;;;27.64;51.38;102145.56;5167421;28;20096;-81
2022/08/06 08:30:38;;;;;;;0.88;0.40;;;25.00;69.40;;;28.21;49.95;102148.28;5167041;28;20046;-83
2022/08/06 08:33:11;;;;;;;1.02;0.30;;;25.30;68.00;;;28.88;48.61;102146.16;5167226;28;20042;-82
2022/08/06 08:35:43;;;;;;;1.73;0.38;;;25.70;66.90;;;29.56;46.88;102145.66;5181995;28;20049;-83
2022/08/06 08:38:15;;;;;;;0.95;0.40;;;26.10;65.40;;;30.18;45.92;102141.47;5182641;28;20046;-83
2022/08/06 08:40:51;;;;;;;1.60;0.40;;;26.50;64.40;;;30.40;44.54;102144.50;5165991;28;20094;-81
2022/08/06 08:43:28;;;;;;;0.75;0.45;;;26.80;62.50;;;30.57;44.34;102149.38;5165991;28;20047;-83
2022/08/06 08:46:03;;;;;;;0.82;0.45;;;27.00;61.60;;;31.27;43.44;102138.47;5166876;28;20046;-81
2022/08/06 08:48:37;;;;;;;1.63;0.50;;;27.60;60.60;;;31.67;42.45;102135.41;5168151;28;20578;-82
2022/08/06 08:51:12;;;;;;;0.90;0.60;;;28.10;59.00;;;31.77;41.73;102138.69;5186081;28;20135;-82
2022/08/06 08:53:53;;;;;;;1.35;0.45;;;28.40;58.40;;;32.18;41.59;102137.31;5169970;28;20050;-82
2022/08/06 08:56:27;;;;;;;2.92;0.40;;;28.70;57.50;;;32.52;40.66;102142.44;5167906;28;20058;-82
2022/08/06 08:59:00;;;;;;;2.55;0.50;;;28.90;56.00;;;32.81;39.49;102138.69;5172428;28;20042;-80
2022/08/06 09:01:35;;;;;;;28.23;2.60;;;29.30;54.40;;;33.04;39.33;102140.53;5168240;28;20034;-82
2022/08/06 09:04:08;;;;;;;18.58;1.65;;;29.60;54.20;;;33.35;38.43;102145.66;5168851;28;20137;-81
2022/08/06 09:06:40;;;;;;;6.97;0.90;;;29.90;53.00;;;33.84;38.13;102137.38;5169349;28;20081;-82
2022/08/06 09:09:12;;;;;;;3.42;0.68;;;30.30;52.60;;;34.05;37.32;102131.13;5170008;28;20046;-81
2022/08/06 09:11:45;;;;;;;2.15;0.60;;;30.40;51.50;;;34.15;36.82;102132.47;5185574;28;20516;-82
2022/08/06 09:14:17;;;;;;;1.88;0.60;;;30.50;50.90;;;34.46;36.52;102142.00;5171487;28;20046;-83
2022/08/06 09:16:51;;;;;;;1.23;0.40;;;30.80;50.60;;;34.11;36.08;102144.41;5175743;28;20057;-82
2022/08/06 09:19:23;;;;;;;1.25;0.40;;;30.70;49.50;;;33.95;36.35;102138.75;5187854;28;20053;-82
2022/08/06 09:21:55;;;;;;;2.70;0.57;;;30.70;49.60;;;33.73;37.33;102144.16;5187700;28;20037;-81
2022/08/06 09:24:28;;;;;;;0.30;0.28;;;30.70;50.20;;;33.34;37.39;102143.91;5175148;28;20042;-82
2022/08/06 09:27:06;;;;;;;1.95;0.47;;;30.50;50.10;;;32.88;38.38;102147.47;5169338;28;20046;-81
2022/08/06 09:29:56;;;;;;;1.67;0.38;;;30.30;50.60;;;32.43;38.95;102142.78;5169989;28;20069;-80
2022/08/06 09:32:41;;;;;;;36.78;3.78;;;30.20;50.70;;;31.82;40.14;102139.44;5171509;28;20073;-82
2022/08/06 09:35:19;;;;;;;9.40;1.13;;;29.90;51.30;;;31.08;40.46;102138.97;5172546;28;20046;-81
2022/08/06 09:38:01;;;;;;;8.80;1.42;;;29.50;51.40;;;30.36;41.17;102145.47;5170794;28;20054;-82
2022/08/06 09:40:33;;;;;;;1.38;0.60;;;29.10;51.80;;;29.89;42.22;102138.59;5170997;28;20035;-82
2022/08/06 09:43:05;;;;;;;2.30;0.50;;;28.70;52.50;;;29.49;43.21;102138.63;5186776;28;20045;-81
2022/08/06 09:45:46;;;;;;;2.45;0.68;;;28.30;53.00;;;29.02;43.47;102145.94;5170493;28;20052;-81
2022/08/06 09:48:20;;;;;;;0.98;0.43;;;28.00;53.10;;;28.37;44.30;102135.53;5169421;28;20047;-83
2022/08/06 09:50:52;;;;;;;1.40;0.60;;;27.60;53.40;;;27.89;45.20;102130.03;5170032;28;20397;-81
2022/08/06 09:53:25;;;;;;;0.85;0.43;;;27.10;54.20;;;27.36;46.08;102134.38;5170530;28;20544;-81
2022/08/06 09:55:58;;;;;;;0.47;0.40;;;26.70;55.50;;;26.79;47.15;102143.06;5169318;28;20050;-81
2022/08/06 09:58:35;;;;;;;1.80;0.50;;;26.20;55.60;;;26.57;47.97;102136.19;5167956;28;20062;-82
2022/08/06 10:01:15;;;;;;;1.73;0.55;;;25.90;56.40;;;26.64;47.77;102132.56;5164660;28;20065;-81
2022/08/06 10:03:49;;;;;;;2.05;0.50;;;25.80;56.70;;;26.51;47.87;102130.91;5173426;28;20046;-80
2022/08/06 10:06:21;;;;;;;1.80;0.63;;;25.70;56.70;;;26.63;48.45;102130.78;5168805;28;20539;-80
2022/08/06 10:09:08;;;;;;;0.68;0.50;;;25.80;57.20;;;26.83;47.50;102127.00;5186146;28;20042;-81
2022/08/06 10:11:42;;;;;;;1.90;0.60;;;25.90;56.70;;;27.05;46.93;102123.19;5170280;28;20035;-80
2022/08/06 10:14:23;;;;;;;4.43;0.68;;;26.10;56.50;;;26.67;46.73;102127.19;5164223;28;20178;-82
2022/08/06 10:17:07;;;;;;;1.73;0.65;;;25.90;55.80;;;26.17;47.21;102128.53;5163273;28;20088;-82
2022/08/06 10:19:44;;;;;;;3.35;0.70;;;25.60;55.90;;;25.75;48.20;102131.53;5169710;28;20101;-83
2022/08/06 10:22:18;;;;;;;2.38;0.70;;;25.30;56.90;;;25.58;49.16;102124.50;5170866;28;20042;-84
2022/08/06 10:24:52;;;;;;;;;;;25.00;57.30;;;25.42;48.87;102133.47;5170024;28;20055;-83
2022/08/06 10:27:32;;;;;;;1.50;0.40;;;24.90;57.10;;;25.19;48.92;102127.41;5169169;28;19921;-83
2022/08/06 10:30:09;;;;;;;1.25;0.50;;;24.60;57.50;;;25.02;49.23;102120.31;5170775;28;20101;-83
2022/08/06 10:32:48;;;;;;;1.70;0.40;;;24.40;57.80;;;25.10;48.33;102130.97;5170883;28;20105;-84
2022/08/06 10:35:26;;;;;;;1.65;0.75;;;24.40;57.50;;;25.29;48.42;102127.31;5185431;28;20412;-81
2022/08/06 10:38:05;;;;;;;0.73;0.45;;;24.50;57.50;;;25.57;47.92;102117.41;5170264;28;20046;-84
2022/08/06 10:40:39;;;;;;;1.08;0.50;;;24.70;57.30;;;25.80;47.42;102113.69;5168197;28;20051;-84
2022/08/06 10:43:12;;;;;;;1.73;0.55;;;24.90;56.80;;;25.94;45.53;102122.47;5169733;28;20038;-82
2022/08/06 10:45:45;;;;;;;0.40;0.40;;;25.00;55.10;;;26.09;44.52;102118.81;5190946;28;20055;-81
2022/08/06 10:48:18;;;;;;;1.05;0.40;;;25.10;54.10;;;26.13;45.02;102118.75;5170539;28;20043;-84
2022/08/06 10:50:52;;;;;;;0.73;0.35;;;25.20;54.50;;;25.98;46.20;102114.44;5169949;28;20053;-83
2022/08/06 10:53:26;;;;;;;0.93;0.30;;;25.20;55.50;;;25.82;47.05;102117.22;5169066;28;20042;-82